Time;durP1;ratioP1;P1;durP2;ratioP2;P2;SDS_P1;SDS_P2;PMS_P1;PMS_P2;Temp;Humidity;BMP_temperature;BMP_pressure;BME280_temperature;BME280_humidity;BME280_pressure;Samples;Min_cycle;Max_cycle;Signal;HPM_P1;HPM_P2
2022/07/29 00:03:11;;;;;;;;;;;;;;;;;;10419207;28;20012;-72
2022/07/29 00:08:11;;;;;;;;;;;;;;;;;;10424684;28;19959;-74
2022/07/29 00:13:12;;;;;;;;;;;;;;;;;;10414818;28;20136;-74
2022/07/29 00:18:12;;;;;;;;;;;;;;;;;;10398649;28;20286;-75
2022/07/29 00:23:12;;;;;;;;;;;;;;;;;;10419340;28;19988;-74
2022/07/29 00:28:13;;;;;;;;;;;;;;;;;;10416022;28;19925;-73
2022/07/29 00:33:13;;;;;;;;;;;;;;;;;;10396714;28;20742;-74
2022/07/29 00:38:13;;;;;;;;;;;;;;;;;;10385079;28;20000;-75
2022/07/29 00:43:13;;;;;;;;;;;;;;;;;;10412818;28;19928;-74
2022/07/29 00:48:14;;;;;;;;;;;;;;;;;;10424826;28;20373;-73
2022/07/29 00:53:14;;;;;;;;;;;;;;;;;;10414639;28;19967;-73
2022/07/29 00:58:14;;;;;;;;;;;;;;;;;;10410785;28;19921;-73
2022/07/29 01:03:14;;;;;;;;;;;;;;;;;;10418710;28;20284;-74
2022/07/29 01:08:15;;;;;;;;;;;;;;;;;;10410578;28;19988;-73
2022/07/29 01:13:15;;;;;;;;;;;;;;;;;;10415773;28;19925;-73
2022/07/29 01:18:15;;;;;;;;;;;;;;;;;;10429114;28;19901;-73
2022/07/29 01:23:15;;;;;;;;;;;;;;;;;;10473321;28;19904;-74
2022/07/29 01:28:15;;;;;;;;;;;;;;;;;;10470845;28;19955;-73
2022/07/29 01:33:48;;;;;;;;;;;;;;;;;;10477865;28;20015;-74
2022/07/29 01:38:36;;;;;;;;;;;;;;;;;;10472332;28;20079;-73
2022/07/29 01:43:36;;;;;;;;;;;;;;;;;;10442848;28;20414;-74
2022/07/29 01:48:37;;;;;;;;;;;;;;;;;;10445076;28;19956;-74
2022/07/29 01:53:37;;;;;;;;;;;;;;;;;;10470879;28;19952;-74
2022/07/29 01:58:38;;;;;;;;;;;;;;;;;;10474241;28;19947;-74
2022/07/29 02:03:38;;;;;;;;;;;;;;;;;;10427666;28;19917;-73
2022/07/29 02:08:38;;;;;;;;;;;;;;;;;;10433651;28;19916;-73
2022/07/29 02:13:38;;;;;;;;;;;;;;;;;;10419385;28;19999;-73
2022/07/29 02:18:39;;;;;;;;;;;;;;;;;;10395917;28;20272;-75
2022/07/29 02:23:39;;;;;;;;;;;;;;;;;;10421778;28;19928;-74
2022/07/29 02:28:39;;;;;;;;;;;;;;;;;;10411180;28;19924;-74
2022/07/29 02:33:40;;;;;;;;;;;;;;;;;;10422373;28;19983;-73
2022/07/29 02:38:53;;;;;;;;;;;;;;;;;;10414206;28;21695;-73
2022/07/29 02:43:53;;;;;;;;;;;;;;;;;;10421581;28;19927;-74
2022/07/29 02:48:53;;;;;;;;;;;;;;;;;;10415484;28;19917;-73
2022/07/29 02:53:54;;;;;;;;;;;;;;;;;;10431711;28;19929;-73
2022/07/29 02:58:54;;;;;;;;;;;;;;;;;;10418298;28;19966;-74
2022/07/29 03:03:54;;;;;;;;;;;;;;;;;;10415088;28;20019;-74
2022/07/29 03:08:54;;;;;;;;;;;;;;;;;;10426502;28;19917;-74
2022/07/29 03:13:55;;;;;;;;;;;;;;;;;;10412112;28;20435;-73
2022/07/29 03:18:55;;;;;;;;;;;;;;;;;;10418935;28;19917;-74
2022/07/29 03:23:55;;;;;;;;;;;;;;;;;;10418738;28;19923;-73
2022/07/29 03:28:55;;;;;;;;;;;;;;;;;;10418405;28;19963;-74
2022/07/29 03:33:57;;;;;;;;;;;;;;;;;;10418572;28;19920;-74
2022/07/29 03:38:57;;;;;;;;;;;;;;;;;;10431220;28;19916;-75
2022/07/29 03:43:57;;;;;;;;;;;;;;;;;;10433941;28;20031;-74
2022/07/29 03:48:58;;;;;;;;;;;;;;;;;;10427009;28;19923;-73
2022/07/29 03:53:58;;;;;;;;;;;;;;;;;;10418389;28;19959;-72
2022/07/29 03:58:58;;;;;;;;;;;;;;;;;;10411802;28;19920;-72
2022/07/29 04:03:58;;;;;;;;;;;;;;;;;;10417085;28;20249;-73
2022/07/29 04:08:59;;;;;;;;;;;;;;;;;;10419750;28;20332;-74
2022/07/29 04:13:59;;;;;;;;;;;;;;;;;;10403585;28;20402;-74
2022/07/29 04:18:59;;;;;;;;;;;;;;;;;;10413954;28;19925;-73
2022/07/29 04:23:59;;;;;;;;;;;;;;;;;;10431207;28;19916;-73
2022/07/29 04:29:00;;;;;;;;;;;;;;;;;;10424554;28;19921;-73
2022/07/29 04:34:00;;;;;;;;;;;;;;;;;;10412073;28;20471;-75
2022/07/29 04:39:01;;;;;;;;;;;;;;;;;;10424593;28;19932;-74
2022/07/29 04:44:04;;;;;;;;;;;;;;;;;;10412488;28;19996;-74
2022/07/29 04:49:05;;;;;;;;;;;;;;;;;;10419366;28;19917;-72
2022/07/29 04:54:05;;;;;;;;;;;;;;;;;;10411142;28;19925;-72
2022/07/29 04:59:06;;;;;;;;;;;;;;;;;;10407190;28;19920;-73
2022/07/29 05:04:06;;;;;;;;;;;;;;;;;;10412593;28;20368;-75
2022/07/29 05:09:06;;;;;;;;;;;;;;;;;;10432018;28;20744;-73
2022/07/29 05:14:06;;;;;;;;;;;;;;;;;;10432667;28;19981;-74
2022/07/29 05:19:07;;;;;;;;;;;;;;;;;;10424096;28;20330;-75
2022/07/29 05:24:07;;;;;;;;;;;;;;;;;;10436873;28;19921;-77
2022/07/29 05:29:09;;;;;;;;;;;;;;;;;;10431886;28;20384;-76
2022/07/29 05:34:09;;;;;;;;;;;;;;;;;;10434804;28;19928;-77
2022/07/29 05:39:09;;;;;;;;;;;;;;;;;;10428199;28;19921;-74
2022/07/29 05:44:11;;;;;;;;;;;;;;;;;;10429026;28;20027;-77
2022/07/29 05:49:11;;;;;;;;;;;;;;;;;;10435724;28;20084;-75
2022/07/29 05:54:12;;;;;;;;;;;;;;;;;;10448236;28;20037;-76
2022/07/29 05:59:12;;;;;;;;;;;;;;;;;;10429984;28;19999;-76
2022/07/29 06:04:12;;;;;;;;;;;;;;;;;;10456278;28;20354;-76
2022/07/29 06:09:15;;;;;;;;;;;;;;;;;;10445996;28;19924;-78
2022/07/29 06:14:16;;;;;;;;;;;;;;;;;;10437074;28;19935;-75
2022/07/29 06:19:16;;;;;;;;;;;;;;;;;;10427596;28;19916;-75
2022/07/29 06:24:16;;;;;;;;;;;;;;;;;;10420714;28;19917;-77
2022/07/29 06:29:17;;;;;;;;;;;;;;;;;;10423827;28;19999;-73
2022/07/29 06:34:17;;;;;;;;;;;;;;;;;;10423100;28;20834;-72
2022/07/29 06:39:17;;;;;;;;;;;;;;;;;;10431824;28;19917;-76
2022/07/29 06:44:17;;;;;;;;;;;;;;;;;;10433152;28;19916;-73
2022/07/29 06:49:18;;;;;;;;;;;;;;;;;;10411896;28;20237;-75
2022/07/29 06:54:18;;;;;;;;;;;;;;;;;;10431199;28;19928;-75
2022/07/29 06:59:18;;;;;;;;;;;;;;;;;;10427333;28;19921;-73
2022/07/29 07:04:18;;;;;;;;;;;;;;;;;;10422567;28;20279;-74
2022/07/29 07:09:19;;;;;;;;;;;;;;;;;;10417412;28;19928;-74
2022/07/29 07:14:19;;;;;;;;;;;;;;;;;;10430327;28;20316;-74
2022/07/29 07:19:19;;;;;;;;;;;;;;;;;;10421544;28;20319;-74
2022/07/29 07:24:19;;;;;;;;;;;;;;;;;;10437095;28;19916;-75
2022/07/29 07:29:20;;;;;;;;;;;;;;;;;;10430713;28;20043;-74
2022/07/29 07:34:20;;;;;;;;;;;;;;;;;;10421428;28;19934;-74
2022/07/29 07:39:20;;;;;;;;;;;;;;;;;;10421400;28;19917;-74
2022/07/29 07:44:20;;;;;;;;;;;;;;;;;;10427062;28;19917;-75
2022/07/29 07:49:21;;;;;;;;;;;;;;;;;;10425303;28;19917;-75
2022/07/29 07:54:21;;;;;;;;;;;;;;;;;;10433607;28;20018;-74
2022/07/29 07:59:21;;;;;;;;;;;;;;;;;;10429273;28;19928;-74
2022/07/29 08:04:21;;;;;;;;;;;;;;;;;;10421178;28;20031;-75
2022/07/29 08:09:22;;;;;;;;;;;;;;;;;;10420828;28;19917;-75
2022/07/29 08:14:22;;;;;;;;;;;;;;;;;;10423147;28;19924;-74
2022/07/29 08:19:22;;;;;;;;;;;;;;;;;;10419572;28;19917;-74
2022/07/29 08:29:41;;;;;;;;;;;;;;;;;;10414693;28;20629;-75
2022/07/29 08:34:42;;;;;;;;;;;;;;;;;;10415555;28;19925;-75
2022/07/29 08:39:42;;;;;;;;;;;;;;;;;;10418273;28;19920;-75
2022/07/29 08:44:42;;;;;;;;;;;;;;;;;;10415595;28;19997;-76
2022/07/29 08:49:43;;;;;;;;;;;;;;;;;;10422643;28;19939;-75
2022/07/29 08:54:43;;;;;;;;;;;;;;;;;;10426281;28;20475;-75
2022/07/29 08:59:43;;;;;;;;;;;;;;;;;;10422479;28;19916;-74
2022/07/29 09:04:43;;;;;;;;;;;;;;;;;;10411193;28;19921;-74
2022/07/29 09:09:44;;;;;;;;;;;;;;;;;;10421281;28;19999;-75
2022/07/29 09:14:44;;;;;;;;;;;;;;;;;;10418357;28;19924;-75
2022/07/29 09:19:44;;;;;;;;;;;;;;;;;;10411061;28;19924;-74
2022/07/29 09:24:44;;;;;;;;;;;;;;;;;;10418739;28;19917;-74
2022/07/29 09:29:45;;;;;;;;;;;;;;;;;;10420717;28;19948;-75
2022/07/29 09:34:45;;;;;;;;;;;;;;;;;;10424875;28;19925;-74
2022/07/29 09:39:45;;;;;;;;;;;;;;;;;;10397580;28;20015;-75
2022/07/29 09:44:46;;;;;;;;;;;;;;;;;;10423233;28;19916;-75
2022/07/29 09:49:46;;;;;;;;;;;;;;;;;;10426386;28;20335;-74
2022/07/29 09:54:47;;;;;;;;;;;;;;;;;;10438066;28;19948;-74
2022/07/29 09:59:47;;;;;;;;;;;;;;;;;;10426372;28;19998;-74
2022/07/29 10:04:47;;;;;;;;;;;;;;;;;;10433752;28;19948;-75
2022/07/29 10:09:47;;;;;;;;;;;;;;;;;;10431650;28;19931;-74
2022/07/29 10:14:48;;;;;;;;;;;;;;;;;;10411266;28;20008;-76
2022/07/29 10:19:48;;;;;;;;;;;;;;;;;;10423896;28;19988;-74
2022/07/29 10:24:48;;;;;;;;;;;;;;;;;;10426266;28;20007;-74
2022/07/29 10:29:49;;;;;;;;;;;;;;;;;;10422748;28;19924;-74
2022/07/29 10:34:49;;;;;;;;;;;;;;;;;;10428048;28;19929;-73
2022/07/29 10:39:50;;;;;;;;;;;;;;;;;;10412340;28;19959;-73
2022/07/29 10:44:50;;;;;;;;;;;;;;;;;;10426705;28;19923;-74
2022/07/29 10:49:50;;;;;;;;;;;;;;;;;;10418803;28;19981;-74
2022/07/29 10:54:52;;;;;;;;;;;;;;;;;;10431733;28;19998;-74
2022/07/29 10:59:52;;;;;;;;;;;;;;;;;;10423539;28;19924;-73
2022/07/29 11:04:53;;;;;;;;;;;;;;;;;;10431331;28;20398;-73
2022/07/29 11:09:53;;;;;;;;;;;;;;;;;;10426100;28;19920;-75
2022/07/29 11:14:54;;;;;;;;;;;;;;;;;;10422775;28;19929;-74
2022/07/29 11:19:56;;;;;;;;;;;;;;;;;;10418140;28;19967;-73
2022/07/29 11:24:56;;;;;;;;;;;;;;;;;;10419181;28;19917;-74
2022/07/29 11:29:56;;;;;;;;;;;;;;;;;;10420685;28;19924;-75
2022/07/29 11:34:57;;;;;;;;;;;;;;;;;;10414527;28;19947;-73
2022/07/29 11:39:58;;;;;;;;;;;;;;;;;;10425852;28;19924;-73
2022/07/29 11:44:58;;;;;;;;;;;;;;;;;;10448810;28;19917;-79
2022/07/29 11:49:58;;;;;;;;;;;;;;;;;;10435128;28;19968;-80
2022/07/29 11:54:59;;;;;;;;;;;;;;;;;;10429249;28;19924;-79
2022/07/29 11:59:59;;;;;;;;;;;;;;;;;;10447230;28;19929;-79
2022/07/29 12:04:59;;;;;;;;;;;;;;;;;;10441435;28;19944;-78
2022/07/29 12:09:59;;;;;;;;;;;;;;;;;;10425385;28;19975;-80
2022/07/29 12:15:00;;;;;;;;;;;;;;;;;;10442707;28;19928;-80
2022/07/29 12:20:00;;;;;;;;;;;;;;;;;;10422431;28;19980;-79
2022/07/29 12:25:00;;;;;;;;;;;;;;;;;;10441488;28;20233;-81
2022/07/29 12:30:00;;;;;;;;;;;;;;;;;;10442511;28;19920;-79
2022/07/29 12:35:01;;;;;;;;;;;;;;;;;;10431966;28;19986;-79
2022/07/29 12:40:01;;;;;;;;;;;;;;;;;;10433154;28;19913;-79
2022/07/29 12:45:02;;;;;;;;;;;;;;;;;;10436284;28;19927;-80
2022/07/29 12:50:02;;;;;;;;;;;;;;;;;;10445154;28;19920;-79
2022/07/29 12:55:04;;;;;;;;;;;;;;;;;;10430926;28;20382;-79
2022/07/29 13:00:04;;;;;;;;;;;;;;;;;;10438697;28;19966;-79
2022/07/29 13:05:04;;;;;;;;;;;;;;;;;;10426540;28;19921;-79
2022/07/29 13:10:06;;;;;;;;;;;;;;;;;;10436830;28;20383;-80
2022/07/29 13:15:06;;;;;;;;;;;;;;;;;;10431065;28;19921;-80
2022/07/29 13:20:08;;;;;;;;;;;;;;;;;;10431267;28;19923;-79
2022/07/29 13:25:08;;;;;;;;;;;;;;;;;;10442534;28;19938;-79
2022/07/29 13:30:09;;;;;;;;;;;;;;;;;;10442426;28;20011;-78
2022/07/29 13:35:09;;;;;;;;;;;;;;;;;;10451361;28;19920;-77
2022/07/29 13:40:11;;;;;;;;;;;;;;;;;;10446902;28;19941;-76
2022/07/29 13:45:11;;;;;;;;;;;;;;;;;;10440402;28;20075;-78
2022/07/29 13:50:11;;;;;;;;;;;;;;;;;;10428754;28;19917;-77
2022/07/29 13:55:13;;;;;;;;;;;;;;;;;;10451276;28;19925;-81
2022/07/29 14:00:13;;;;;;;;;;;;;;;;;;10453275;28;19920;-79
2022/07/29 14:05:15;;;;;;;;;;;;;;;;;;10460550;28;19921;-79
2022/07/29 14:10:15;;;;;;;;;;;;;;;;;;10432488;28;19934;-77
2022/07/29 14:15:17;;;;;;;;;;;;;;;;;;10450757;28;20016;-79
2022/07/29 14:20:17;;;;;;;;;;;;;;;;;;10436086;28;19927;-81
2022/07/29 14:25:17;;;;;;;;;;;;;;;;;;10430115;28;20036;-78
2022/07/29 14:30:18;;;;;;;;;;;;;;;;;;10428320;28;20228;-77
2022/07/29 14:35:18;;;;;;;;;;;;;;;;;;10411374;28;19924;-76
2022/07/29 14:40:18;;;;;;;;;;;;;;;;;;10439464;28;19967;-77
2022/07/29 14:45:18;;;;;;;;;;;;;;;;;;10430953;28;20023;-75
2022/07/29 14:50:19;;;;;;;;;;;;;;;;;;10420320;28;19913;-77
2022/07/29 14:55:19;;;;;;;;;;;;;;;;;;10407915;28;19951;-77
2022/07/29 15:00:20;;;;;;;;;;;;;;;;;;10421369;28;19917;-75
2022/07/29 15:05:20;;;;;;;;;;;;;;;;;;10425321;28;20103;-75
2022/07/29 15:10:21;;;;;;;;;;;;;;;;;;10420147;28;19970;-77
2022/07/29 15:15:21;;;;;;;;;;;;;;;;;;10429927;28;19932;-77
2022/07/29 15:20:24;;;;;;;;;;;;;;;;;;10421193;28;20051;-78
2022/07/29 15:25:24;;;;;;;;;;;;;;;;;;10432444;28;20401;-77
2022/07/29 15:30:24;;;;;;;;;;;;;;;;;;10435118;28;19952;-77
2022/07/29 15:35:24;;;;;;;;;;;;;;;;;;10448824;28;20001;-77
2022/07/29 15:40:24;;;;;;;;;;;;;;;;;;10434864;28;19917;-77
2022/07/29 15:45:25;;;;;;;;;;;;;;;;;;10423201;28;19976;-78
2022/07/29 15:50:25;;;;;;;;;;;;;;;;;;10422556;28;19917;-75
2022/07/29 15:55:25;;;;;;;;;;;;;;;;;;10420582;28;20380;-77
2022/07/29 16:00:25;;;;;;;;;;;;;;;;;;10433698;28;20830;-76
2022/07/29 16:05:28;;;;;;;;;;;;;;;;;;10418599;28;20360;-76
2022/07/29 16:10:28;;;;;;;;;;;;;;;;;;10430512;28;20270;-76
2022/07/29 16:15:28;;;;;;;;;;;;;;;;;;10418531;28;19921;-78
2022/07/29 16:20:29;;;;;;;;;;;;;;;;;;10411388;28;19919;-76
2022/07/29 16:25:29;;;;;;;;;;;;;;;;;;10423625;28;19983;-76
2022/07/29 16:30:29;;;;;;;;;;;;;;;;;;10413419;28;19952;-75
2022/07/29 16:35:29;;;;;;;;;;;;;;;;;;10419252;28;20414;-76
2022/07/29 16:40:30;;;;;;;;;;;;;;;;;;10409378;28;20015;-75
2022/07/29 16:45:30;;;;;;;;;;;;;;;;;;10421897;28;19917;-76
2022/07/29 16:50:30;;;;;;;;;;;;;;;;;;10414966;28;19971;-76
2022/07/29 16:55:30;;;;;;;;;;;;;;;;;;10409585;28;19929;-76
2022/07/29 17:00:31;;;;;;;;;;;;;;;;;;10414170;28;19924;-75
2022/07/29 17:05:31;;;;;;;;;;;;;;;;;;10418079;28;20342;-74
2022/07/29 17:10:31;;;;;;;;;;;;;;;;;;10424467;28;20000;-76
2022/07/29 17:15:31;;;;;;;;;;;;;;;;;;10422334;28;20681;-75
2022/07/29 17:20:32;;;;;;;;;;;;;;;;;;10408623;28;20422;-75
2022/07/29 17:25:32;;;;;;;;;;;;;;;;;;10421513;28;19924;-74
2022/07/29 17:30:32;;;;;;;;;;;;;;;;;;10430133;28;20016;-73
2022/07/29 17:40:52;;;;;;;;;;;;;;;;;;10420665;28;19917;-76
2022/07/29 17:45:52;;;;;;;;;;;;;;;;;;10446535;28;19917;-75
2022/07/29 17:50:52;;;;;;;;;;;;;;;;;;10425955;28;19931;-76
2022/07/29 17:55:54;;;;;;;;;;;;;;;;;;10411827;28;19925;-75
2022/07/29 18:00:55;;;;;;;;;;;;;;;;;;10415896;28;19924;-77
2022/07/29 18:05:55;;;;;;;;;;;;;;;;;;10427541;28;19920;-75
2022/07/29 18:10:55;;;;;;;;;;;;;;;;;;10422939;28;20000;-76
2022/07/29 18:15:55;;;;;;;;;;;;;;;;;;10427184;28;20588;-75
2022/07/29 18:20:56;;;;;;;;;;;;;;;;;;10432659;28;19943;-73
2022/07/29 18:25:56;;;;;;;;;;;;;;;;;;10430973;28;19932;-75
2022/07/29 18:30:56;;;;;;;;;;;;;;;;;;10422205;28;19924;-75
2022/07/29 18:35:56;;;;;;;;;;;;;;;;;;10441054;28;19925;-76
2022/07/29 18:40:57;;;;;;;;;;;;;;;;;;10427847;28;19924;-79
2022/07/29 18:45:57;;;;;;;;;;;;;;;;;;10421060;28;19913;-78
2022/07/29 18:50:58;;;;;;;;;;;;;;;;;;10430024;28;19916;-75
2022/07/29 18:56:00;;;;;;;;;;;;;;;;;;10429278;28;20007;-76
2022/07/29 19:01:01;;;;;;;;;;;;;;;;;;10432820;28;20624;-75
2022/07/29 19:06:01;;;;;;;;;;;;;;;;;;10425622;28;19971;-74
2022/07/29 19:11:01;;;;;;;;;;;;;;;;;;10415710;28;19939;-77
2022/07/29 19:16:01;;;;;;;;;;;;;;;;;;10418328;28;20007;-75
2022/07/29 19:21:01;;;;;;;;;;;;;;;;;;10425503;28;19912;-77
2022/07/29 19:26:02;;;;;;;;;;;;;;;;;;10425945;28;19920;-74
2022/07/29 19:31:02;;;;;;;;;;;;;;;;;;10414759;28;20036;-77
2022/07/29 19:36:02;;;;;;;;;;;;;;;;;;10429866;28;20645;-74
2022/07/29 19:41:04;;;;;;;;;;;;;;;;;;10422642;28;19924;-77
2022/07/29 19:46:05;;;;;;;;;;;;;;;;;;10409673;28;20007;-76
2022/07/29 19:51:05;;;;;;;;;;;;;;;;;;10424605;28;19916;-75
2022/07/29 19:56:05;;;;;;;;;;;;;;;;;;10420057;28;19947;-76
2022/07/29 20:01:06;;;;;;;;;;;;;;;;;;10427098;28;20319;-74
2022/07/29 20:06:07;;;;;;;;;;;;;;;;;;10415840;28;19913;-74
2022/07/29 20:11:07;;;;;;;;;;;;;;;;;;10421565;28;19999;-74
2022/07/29 20:16:07;;;;;;;;;;;;;;;;;;10432530;28;19929;-74
2022/07/29 20:21:08;;;;;;;;;;;;;;;;;;10448368;28;19919;-74
2022/07/29 20:26:08;;;;;;;;;;;;;;;;;;10419654;28;19912;-75
2022/07/29 20:31:09;;;;;;;;;;;;;;;;;;10423365;28;19935;-76
2022/07/29 20:36:09;;;;;;;;;;;;;;;;;;10424531;28;20379;-75
2022/07/29 20:41:09;;;;;;;;;;;;;;;;;;10410716;28;20288;-76
2022/07/29 20:46:09;;;;;;;;;;;;;;;;;;10407845;28;20332;-75
2022/07/29 20:51:10;;;;;;;;;;;;;;;;;;10414882;28;19993;-74
2022/07/29 20:56:11;;;;;;;;;;;;;;;;;;10415062;28;19924;-76
2022/07/29 21:01:11;;;;;;;;;;;;;;;;;;10413399;28;19955;-74
2022/07/29 21:06:11;;;;;;;;;;;;;;;;;;10414179;28;19917;-76
2022/07/29 21:14:54;;;;;;;;;;;;;;;;;;10468228;27;126271;-75
2022/07/29 21:21:45;;;;;;;12.25;10.95;;;;;;;;;;10508658;27;20211;-75
2022/07/29 21:26:45;;;;;;;13.50;12.10;;;;;;;;;;10456092;28;20140;-74
2022/07/29 21:31:46;;;;;;;13.20;11.80;;;;;;;;;;10463596;28;20064;-74
2022/07/29 21:36:46;;;;;;;13.63;12.23;;;;;;;;;;10453135;28;20303;-73
2022/07/29 21:41:46;;;;;;;12.90;11.43;;;;;;;;;;10466758;28;20045;-73
2022/07/29 21:46:47;;;;;;;14.27;12.27;;;;;;;;;;10464609;28;20044;-74
2022/07/29 21:51:48;;;;;;;13.43;10.85;;;;;;;;;;10479291;28;20124;-73
2022/07/29 21:56:48;;;;;;;15.38;11.93;;;;;;;;;;10468792;28;20502;-74
2022/07/29 22:01:49;;;;;;;14.25;11.85;;;;;;;;;;10469417;28;20067;-74
2022/07/29 22:06:49;;;;;;;13.65;11.77;;;;;;;;;;10473575;28;20049;-76
2022/07/29 22:11:50;;;;;;;12.53;11.23;;;;;;;;;;10460404;28;20048;-75
2022/07/29 22:16:50;;;;;;;10.85;9.73;;;;;;;;;;10536830;28;20335;-75
2022/07/29 22:21:50;;;;;;;12.83;11.53;;;;;;;;;;10535083;28;20040;-75
2022/07/29 22:26:51;;;;;;;12.95;11.20;;;;;;;;;;10537429;28;20309;-73
2022/07/29 22:31:52;;;;;;;13.20;11.80;;;;;;;;;;10522607;28;20143;-75
2022/07/29 22:36:52;;;;;;;13.77;12.33;;;;;;;;;;10500057;28;20649;-74
2022/07/29 22:41:52;;;;;;;13.17;11.73;;;;;;;;;;10530806;28;20288;-74
2022/07/29 22:46:53;;;;;;;13.45;11.48;;;;;;;;;;10520873;27;20346;-73
2022/07/29 22:51:53;;;;;;;12.70;10.80;;;;;;;;;;10521049;28;20044;-73
2022/07/29 22:56:53;;;;;;;13.97;11.00;;;;;;;;;;10512619;28;20050;-74
2022/07/29 23:01:54;;;;;;;12.10;10.90;;;;;;;;;;10515618;28;20275;-74
2022/07/29 23:06:54;;;;;;;11.20;10.10;;;;;;;;;;10503184;28;20040;-74
2022/07/29 23:11:54;;;;;;;13.30;10.98;;;;;;;;;;10520004;28;20130;-74
2022/07/29 23:16:55;;;;;;;11.23;10.03;;;;;;;;;;10518668;28;20055;-74
2022/07/29 23:21:55;;;;;;;13.03;11.20;;;;;;;;;;10517099;28;20078;-75
2022/07/29 23:26:55;;;;;;;12.50;11.20;;;;;;;;;;10526008;28;20237;-75
2022/07/29 23:31:56;;;;;;;15.30;11.93;;;;;;;;;;10509906;28;20135;-75
2022/07/29 23:36:56;;;;;;;13.87;12.37;;;;;;;;;;10511676;28;20476;-74
2022/07/29 23:41:56;;;;;;;13.27;11.90;;;;;;;;;;10501193;28;20047;-74
2022/07/29 23:46:57;;;;;;;15.53;11.90;;;;;;;;;;10512286;28;20096;-72
2022/07/29 23:51:57;;;;;;;15.33;12.40;;;;;;;;;;10507202;28;20044;-72
2022/07/29 23:56:58;;;;;;;14.27;12.63;;;;;;;;;;10513668;28;20792;-74
